Time;durP1;ratioP1;P1;durP2;ratioP2;P2;SDS_P1;SDS_P2;PMS_P1;PMS_P2;Temp;Humidity;BMP_temperature;BMP_pressure;BME280_temperature;BME280_humidity;BME280_pressure;Samples;Min_cycle;Max_cycle;Signal;HPM_P1;HPM_P2
2023/01/06 00:01:04;;;;;;;;;;;19.80;52.30;;;;;;1554115;76;731;-72
2023/01/06 00:03:07;;;;;;;;;;;19.80;52.30;;;;;;1542453;76;1253;-73
2023/01/06 00:05:09;;;;;;;;;;;19.80;52.20;;;;;;1554506;76;726;-71
2023/01/06 00:07:11;;;;;;;;;;;19.80;52.30;;;;;;1545494;76;718;-70
2023/01/06 00:09:13;;;;;;;;;;;19.80;52.30;;;;;;1537952;75;1945;-71
2023/01/06 00:11:15;;;;;;;;;;;19.80;52.20;;;;;;1548632;76;1177;-71
2023/01/06 00:13:17;;;;;;;;;;;19.80;52.20;;;;;;1538991;76;1584;-72
2023/01/06 00:15:19;;;;;;;;;;;19.80;52.30;;;;;;1527478;75;803;-73
2023/01/06 00:17:21;;;;;;;;;;;19.80;52.30;;;;;;1557131;76;649;-71
2023/01/06 00:19:23;;;;;;;;;;;19.70;52.20;;;;;;1544790;76;704;-72
2023/01/06 00:21:24;;;;;;;;;;;19.80;52.20;;;;;;1555216;75;1157;-71
2023/01/06 00:23:26;;;;;;;;;;;19.80;52.20;;;;;;1551837;76;719;-71
2023/01/06 00:25:28;;;;;;;;;;;19.80;52.20;;;;;;1534323;76;810;-71
2023/01/06 00:27:30;;;;;;;;;;;19.70;52.20;;;;;;1544285;76;1592;-72
2023/01/06 00:29:33;;;;;;;;;;;19.70;52.20;;;;;;1549021;75;1930;-72
2023/01/06 00:31:35;;;;;;;;;;;19.80;52.30;;;;;;1538510;76;1115;-71
2023/01/06 00:33:37;;;;;;;;;;;19.80;52.30;;;;;;1528391;77;1410;-72
2023/01/06 00:35:38;;;;;;;;;;;19.80;52.20;;;;;;1554174;75;775;-72
2023/01/06 00:37:40;;;;;;;;;;;19.80;52.30;;;;;;1548645;76;792;-72
2023/01/06 00:39:42;;;;;;;;;;;19.70;52.20;;;;;;1537783;76;734;-69
2023/01/06 00:42:02;;;;;;;;;;;19.80;52.20;;;;;;1539555;75;1528;-71
2023/01/06 00:44:04;;;;;;;;;;;19.80;52.20;;;;;;1545585;76;622;-72
2023/01/06 00:46:06;;;;;;;;;;;19.80;52.20;;;;;;1553379;76;732;-72
2023/01/06 00:48:12;;;;;;;;;;;19.80;52.20;;;;;;1545369;76;772;-71
2023/01/06 00:50:12;;;;;;;;;;;19.80;52.20;;;;;;1548198;76;1333;-72
2023/01/06 00:52:14;;;;;;;;;;;19.80;52.20;;;;;;1541655;76;1146;-73
2023/01/06 00:54:15;;;;;;;;;;;19.80;52.20;;;;;;1558724;76;812;-70
2023/01/06 00:56:17;;;;;;;;;;;19.80;52.20;;;;;;1540796;76;785;-70
2023/01/06 00:58:19;;;;;;;;;;;19.70;52.20;;;;;;1554660;76;759;-71
2023/01/06 01:00:21;;;;;;;;;;;19.80;52.20;;;;;;1554829;76;723;-71
2023/01/06 01:02:23;;;;;;;;;;;19.80;52.20;;;;;;1548491;75;1188;-70
2023/01/06 01:04:25;;;;;;;;;;;19.70;52.20;;;;;;1558354;76;757;-70
2023/01/06 01:06:27;;;;;;;;;;;19.80;52.20;;;;;;1552568;76;723;-72
2023/01/06 01:08:28;;;;;;;;;;;19.80;52.20;;;;;;1548910;75;1934;-72
2023/01/06 01:10:30;;;;;;;;;;;19.70;52.20;;;;;;1549846;76;810;-72
2023/01/06 01:12:32;;;;;;;;;;;19.80;52.10;;;;;;1535667;76;1171;-71
2023/01/06 01:14:34;;;;;;;;;;;19.80;52.20;;;;;;1546435;76;733;-72
2023/01/06 01:16:36;;;;;;;;;;;19.80;52.20;;;;;;1539089;75;733;-72
2023/01/06 01:18:38;;;;;;;;;;;19.80;52.10;;;;;;1555523;75;807;-71
2023/01/06 01:20:40;;;;;;;;;;;19.70;52.20;;;;;;1556397;76;724;-72
2023/01/06 01:22:42;;;;;;;;;;;19.80;52.20;;;;;;1545584;76;1618;-71
2023/01/06 01:24:43;;;;;;;;;;;19.70;52.20;;;;;;1545577;75;803;-71
2023/01/06 01:26:45;;;;;;;;;;;19.80;52.20;;;;;;1554041;76;725;-71
2023/01/06 01:28:47;;;;;;;;;;;19.80;52.20;;;;;;1529379;76;1931;-72
2023/01/06 01:30:49;;;;;;;;;;;19.70;52.20;;;;;;1554698;76;754;-71
2023/01/06 01:32:51;;;;;;;;;;;19.80;52.20;;;;;;1541403;76;1169;-71
2023/01/06 01:34:53;;;;;;;;;;;19.80;52.20;;;;;;1540918;76;737;-70
2023/01/06 01:36:55;;;;;;;;;;;19.70;52.20;;;;;;1548904;75;1352;-71
2023/01/06 01:38:57;;;;;;;;;;;19.70;52.20;;;;;;1550632;76;687;-72
2023/01/06 01:40:59;;;;;;;;;;;19.70;52.20;;;;;;1545038;76;718;-72
2023/01/06 01:43:01;;;;;;;;;;;19.70;52.20;;;;;;1546107;76;1209;-72
2023/01/06 01:45:06;;;;;;;;;;;19.70;52.20;;;;;;1553918;76;716;-71
2023/01/06 01:47:08;;;;;;;;;;;19.70;52.20;;;;;;1545037;76;679;-71
2023/01/06 01:49:15;;;;;;;;;;;19.80;52.20;;;;;;1553835;76;1926;-71
2023/01/06 01:51:17;;;;;;;;;;;19.70;52.30;;;;;;1544634;76;1561;-71
2023/01/06 01:53:21;;;;;;;;;;;19.70;52.20;;;;;;1544750;76;749;-70
2023/01/06 01:55:23;;;;;;;;;;;19.80;52.20;;;;;;1544239;77;1884;-70
2023/01/06 01:57:26;;;;;;;;;;;19.70;52.20;;;;;;1555390;76;712;-71
2023/01/06 01:59:29;;;;;;;;;;;19.70;52.20;;;;;;1550949;75;687;-72
2023/01/06 02:01:31;;;;;;;;;;;19.70;52.20;;;;;;1551963;76;1144;-71
2023/01/06 02:03:33;;;;;;;;;;;19.80;52.20;;;;;;1561360;76;729;-71
2023/01/06 02:05:36;;;;;;;;;;;19.80;52.20;;;;;;1548731;76;1533;-72
2023/01/06 02:07:38;;;;;;;;;;;19.70;52.20;;;;;;1563895;76;677;-71
2023/01/06 02:09:41;;;;;;;;;;;19.70;52.20;;;;;;1543999;76;1923;-71
2023/01/06 02:11:46;;;;;;;;;;;19.70;52.20;;;;;;1526240;75;1827;-72
2023/01/06 02:13:47;;;;;;;;;;;19.70;52.20;;;;;;1546367;75;1668;-70
2023/01/06 02:15:49;;;;;;;;;;;19.70;52.20;;;;;;1545098;76;631;-72
2023/01/06 02:18:09;;;;;;;;;;;19.70;52.20;;;;;;1544456;75;784;-71
2023/01/06 02:20:15;;;;;;;;;;;19.70;52.20;;;;;;1537172;75;1445;-72
2023/01/06 02:22:35;;;;;;;;;;;19.70;52.20;;;;;;1545097;75;1965;-72
2023/01/06 02:24:39;;;;;;;;;;;19.70;52.10;;;;;;1543863;76;735;-69
2023/01/06 02:26:42;;;;;;;;;;;19.70;52.20;;;;;;1545349;75;2012;-71
2023/01/06 02:28:55;;;;;;;;;;;19.70;52.20;;;;;;1548684;76;816;-72
2023/01/06 02:31:16;;;;;;;;;;;19.70;52.30;;;;;;1544748;76;750;-69
2023/01/06 02:33:26;;;;;;;;;;;19.70;52.20;;;;;;1539365;75;1926;-71
2023/01/06 02:35:39;;;;;;;;;;;19.80;52.20;;;;;;1550377;76;974;-72
2023/01/06 02:37:54;;;;;;;;;;;19.70;52.20;;;;;;1537763;76;1804;-72
2023/01/06 02:40:04;;;;;;;;;;;19.70;52.20;;;;;;1552782;75;1493;-72
2023/01/06 02:42:07;;;;;;;;;;;19.70;52.20;;;;;;1550850;74;1954;-71
2023/01/06 02:44:11;;;;;;;;;;;19.70;52.30;;;;;;1557787;75;714;-70
2023/01/06 02:46:24;;;;;;;;;;;19.70;52.30;;;;;;1557359;76;716;-71
2023/01/06 02:48:30;;;;;;;;;;;19.70;52.30;;;;;;1548247;76;1846;-72
2023/01/06 02:50:39;;;;;;;;;;;19.70;52.30;;;;;;1544572;75;1915;-72
2023/01/06 02:53:01;;;;;;;;;;;19.70;52.30;;;;;;1549734;76;1141;-71
2023/01/06 02:55:23;;;;;;;;;;;19.70;52.30;;;;;;1541535;76;1066;-70
2023/01/06 02:57:32;;;;;;;;;;;19.70;52.30;;;;;;1557665;75;722;-72
2023/01/06 02:59:36;;;;;;;;;;;19.70;52.20;;;;;;1549900;76;1474;-71
2023/01/06 03:01:40;;;;;;;;;;;19.70;52.30;;;;;;1529902;75;1542;-71
2023/01/06 03:03:42;;;;;;;;;;;19.70;52.30;;;;;;1538748;76;775;-71
2023/01/06 03:05:45;;;;;;;;;;;19.70;52.30;;;;;;1553615;76;747;-71
2023/01/06 03:07:46;;;;;;;;;;;19.70;52.30;;;;;;1541122;76;809;-72
2023/01/06 03:09:48;;;;;;;;;;;19.70;52.30;;;;;;1547929;75;1922;-71
2023/01/06 03:11:50;;;;;;;;;;;19.70;52.30;;;;;;1554349;75;1138;-71
2023/01/06 03:13:53;;;;;;;;;;;19.70;52.30;;;;;;1543519;75;876;-71
2023/01/06 03:15:54;;;;;;;;;;;19.70;52.30;;;;;;1532708;75;1333;-72
2023/01/06 03:17:56;;;;;;;;;;;19.70;52.30;;;;;;1531462;76;815;-71
2023/01/06 03:19:58;;;;;;;;;;;19.70;52.30;;;;;;1553072;76;761;-71
2023/01/06 03:22:00;;;;;;;;;;;19.70;52.30;;;;;;1555690;75;1184;-72
2023/01/06 03:24:04;;;;;;;;;;;19.70;52.30;;;;;;1539641;75;728;-70
2023/01/06 03:26:06;;;;;;;;;;;19.70;52.30;;;;;;1540886;76;727;-72
2023/01/06 03:28:07;;;;;;;;;;;19.70;52.20;;;;;;1547275;76;800;-71
2023/01/06 03:30:10;;;;;;;;;;;19.70;52.20;;;;;;1544769;76;1943;-72
2023/01/06 03:32:16;;;;;;;;;;;19.70;52.30;;;;;;1533241;76;1128;-72
2023/01/06 03:34:20;;;;;;;;;;;19.70;52.20;;;;;;1548665;76;2094;-72
2023/01/06 03:36:29;;;;;;;;;;;19.70;52.30;;;;;;1545611;76;2317;-71
2023/01/06 03:38:32;;;;;;;;;;;19.70;52.20;;;;;;1556980;75;742;-72
2023/01/06 03:40:42;;;;;;;;;;;19.70;52.30;;;;;;1540590;76;826;-70
2023/01/06 03:43:12;;;;;;;;;;;19.70;52.30;;;;;;1542534;76;1184;-70
2023/01/06 03:45:21;;;;;;;;;;;19.70;52.30;;;;;;1530163;75;667;-72
2023/01/06 03:47:24;;;;;;;;;;;19.70;52.20;;;;;;1531250;76;1440;-71
2023/01/06 03:49:27;;;;;;;;;;;19.70;52.20;;;;;;1540366;76;1929;-71
2023/01/06 03:51:31;;;;;;;;;;;19.70;52.30;;;;;;1542060;76;1146;-72
2023/01/06 03:53:39;;;;;;;;;;;19.70;52.30;;;;;;1531342;76;739;-70
2023/01/06 03:55:41;;;;;;;;;;;19.60;52.20;;;;;;1534935;76;746;-71
2023/01/06 03:57:44;;;;;;;;;;;19.70;52.30;;;;;;1535232;75;1541;-70
2023/01/06 03:59:53;;;;;;;;;;;19.70;52.30;;;;;;1545303;76;781;-71
2023/01/06 04:01:55;;;;;;;;;;;19.70;52.30;;;;;;1542751;75;1795;-71
2023/01/06 04:03:57;;;;;;;;;;;19.70;52.20;;;;;;1534842;75;712;-72
2023/01/06 04:05:59;;;;;;;;;;;19.70;52.20;;;;;;1537173;76;764;-72
2023/01/06 04:08:00;;;;;;;;;;;19.70;52.30;;;;;;1557630;75;767;-71
2023/01/06 04:10:02;;;;;;;;;;;19.70;52.20;;;;;;1546488;75;1939;-72
2023/01/06 04:14:24;;;;;;;;;;;19.70;52.30;;;;;;1538953;76;1680;-71
2023/01/06 04:16:26;;;;;;;;;;;19.70;52.30;;;;;;1539966;76;825;-71
2023/01/06 04:18:28;;;;;;;;;;;19.60;52.10;;;;;;1546164;76;739;-70
2023/01/06 04:20:30;;;;;;;;;;;19.70;52.20;;;;;;1552222;75;635;-71
2023/01/06 04:22:32;;;;;;;;;;;19.70;52.30;;;;;;1547298;75;1202;-72
2023/01/06 04:24:34;;;;;;;;;;;19.70;52.20;;;;;;1536884;75;711;-72
2023/01/06 04:26:35;;;;;;;;;;;19.70;52.30;;;;;;1549251;76;1590;-70
2023/01/06 04:28:37;;;;;;;;;;;19.70;52.30;;;;;;1538964;75;764;-73
2023/01/06 04:30:39;;;;;;;;;;;19.70;52.20;;;;;;1534971;75;1942;-72
2023/01/06 04:32:41;;;;;;;;;;;19.70;52.30;;;;;;1547840;73;3074;-70
2023/01/06 04:34:43;;;;;;;;;;;19.70;52.30;;;;;;1515565;77;676;-71
2023/01/06 04:36:45;;;;;;;;;;;19.70;52.20;;;;;;1518541;76;703;-71
2023/01/06 04:38:47;;;;;;;;;;;19.70;52.20;;;;;;1534627;76;569;-71
2023/01/06 04:40:48;;;;;;;;;;;19.70;52.20;;;;;;1552826;75;1465;-71
2023/01/06 04:43:15;;;;;;;;;;;19.60;52.10;;;;;;1558552;75;1176;-70
2023/01/06 04:44:54;;;;;;;;;;;19.70;52.20;;;;;;1534184;76;1355;-71
2023/01/06 04:46:56;;;;;;;;;;;19.70;52.20;;;;;;1552585;76;724;-71
2023/01/06 04:48:58;;;;;;;;;;;19.70;52.20;;;;;;1559162;76;752;-71
2023/01/06 04:51:00;;;;;;;;;;;19.70;52.20;;;;;;1569390;76;1926;-71
2023/01/06 04:53:02;;;;;;;;;;;19.70;52.20;;;;;;1563217;74;1163;-71
2023/01/06 04:55:04;;;;;;;;;;;19.70;52.20;;;;;;1568393;74;1476;-70
2023/01/06 04:57:06;;;;;;;;;;;19.70;52.30;;;;;;1556958;76;674;-70
2023/01/06 04:59:08;;;;;;;;;;;19.70;52.20;;;;;;1556287;76;663;-71
2023/01/06 05:01:10;;;;;;;;;;;19.70;52.20;;;;;;1560538;75;741;-70
2023/01/06 05:03:12;;;;;;;;;;;19.70;52.10;;;;;;1565625;74;1065;-70
2023/01/06 05:05:15;;;;;;;;;;;19.70;52.20;;;;;;1566945;76;739;-71
2023/01/06 05:07:16;;;;;;;;;;;19.70;52.20;;;;;;1566236;76;700;-68
2023/01/06 05:09:18;;;;;;;;;;;19.70;52.20;;;;;;1569040;74;1628;-70
2023/01/06 05:11:21;;;;;;;;;;;19.70;52.20;;;;;;1569423;75;1931;-69
2023/01/06 05:13:23;;;;;;;;;;;19.70;52.20;;;;;;1565363;75;1114;-70
2023/01/06 05:15:25;;;;;;;;;;;19.70;52.20;;;;;;1562529;75;699;-71
2023/01/06 05:17:27;;;;;;;;;;;19.60;52.00;;;;;;1561964;76;773;-71
2023/01/06 05:19:28;;;;;;;;;;;19.70;52.10;;;;;;1558731;76;780;-70
2023/01/06 05:21:30;;;;;;;;;;;19.70;52.20;;;;;;1558433;75;1387;-72
2023/01/06 05:23:32;;;;;;;;;;;19.70;52.20;;;;;;1567112;75;649;-70
2023/01/06 05:25:34;;;;;;;;;;;19.60;52.10;;;;;;1570073;74;697;-71
2023/01/06 05:27:36;;;;;;;;;;;19.70;52.10;;;;;;1562731;76;788;-70
2023/01/06 05:29:38;;;;;;;;;;;19.60;52.10;;;;;;1569150;76;714;-71
2023/01/06 05:31:40;;;;;;;;;;;19.70;52.10;;;;;;1572758;74;1938;-69
2023/01/06 05:33:41;;;;;;;;;;;19.70;52.10;;;;;;1553800;76;740;-71
2023/01/06 05:35:43;;;;;;;;;;;19.60;52.10;;;;;;1556022;76;1430;-70
2023/01/06 05:37:45;;;;;;;;;;;19.60;52.10;;;;;;1555822;75;748;-71
2023/01/06 05:39:47;;;;;;;;;;;19.70;52.10;;;;;;1555919;75;709;-71
2023/01/06 05:41:49;;;;;;;;;;;19.60;52.00;;;;;;1555605;75;1160;-71
2023/01/06 05:43:51;;;;;;;;;;;19.70;52.20;;;;;;1552871;76;748;-69
2023/01/06 05:45:53;;;;;;;;;;;19.70;52.20;;;;;;1554829;76;696;-70
2023/01/06 05:47:56;;;;;;;;;;;19.70;52.20;;;;;;1555701;76;705;-71
2023/01/06 05:49:58;;;;;;;;;;;19.60;52.10;;;;;;1547691;76;1919;-70
2023/01/06 05:52:00;;;;;;;;;;;19.60;52.10;;;;;;1555636;75;1128;-70
2023/01/06 05:54:02;;;;;;;;;;;19.70;52.20;;;;;;1558455;75;787;-70
2023/01/06 05:56:08;;;;;;;;;;;19.70;52.20;;;;;;1553745;76;742;-71
2023/01/06 05:58:10;;;;;;;;;;;19.70;52.10;;;;;;1556466;76;726;-71
2023/01/06 06:00:12;;;;;;;;;;;19.70;52.20;;;;;;1548031;76;730;-71
2023/01/06 06:02:14;;;;;;;;;;;19.70;52.20;;;;;;1553099;75;1129;-71
2023/01/06 06:04:16;;;;;;;;;;;19.70;52.20;;;;;;1555488;76;1437;-70
2023/01/06 06:06:18;;;;;;;;;;;19.60;52.10;;;;;;1554859;76;719;-70
2023/01/06 06:08:19;;;;;;;;;;;19.60;52.00;;;;;;1555304;75;761;-70
2023/01/06 06:10:21;;;;;;;;;;;19.70;52.10;;;;;;1554624;76;1934;-70
2023/01/06 06:12:23;;;;;;;;;;;19.70;52.10;;;;;;1554978;75;1126;-71
2023/01/06 06:14:25;;;;;;;;;;;19.70;52.10;;;;;;1553637;76;757;-70
2023/01/06 06:16:27;;;;;;;;;;;19.60;52.10;;;;;;1553898;76;693;-70
2023/01/06 06:18:29;;;;;;;;;;;19.70;52.10;;;;;;1551694;76;1445;-71
2023/01/06 06:20:31;;;;;;;;;;;19.70;52.10;;;;;;1552515;76;701;-70
2023/01/06 06:22:33;;;;;;;;;;;19.70;52.10;;;;;;1550593;75;1169;-70
2023/01/06 06:24:34;;;;;;;;;;;19.70;52.10;;;;;;1546826;76;690;-71
2023/01/06 06:26:36;;;;;;;;;;;19.60;52.00;;;;;;1546934;76;770;-70
2023/01/06 06:28:38;;;;;;;;;;;19.60;52.00;;;;;;1558532;76;692;-70
2023/01/06 06:30:40;;;;;;;;;;;19.70;52.10;;;;;;1553120;76;1926;-70
2023/01/06 06:32:42;;;;;;;;;;;19.70;52.10;;;;;;1554547;75;1484;-70
2023/01/06 06:34:44;;;;;;;;;;;19.60;52.00;;;;;;1555681;76;771;-73
2023/01/06 06:36:46;;;;;;;;;;;19.60;52.00;;;;;;1548790;76;615;-71
2023/01/06 06:38:48;;;;;;;;;;;19.60;52.00;;;;;;1553963;76;800;-71
2023/01/06 06:40:50;;;;;;;;;;;19.70;52.10;;;;;;1553958;76;723;-71
2023/01/06 06:42:52;;;;;;;;;;;19.60;51.90;;;;;;1555415;75;1233;-70
2023/01/06 06:44:53;;;;;;;;;;;19.60;51.90;;;;;;1556161;76;703;-68
2023/01/06 06:46:55;;;;;;;;;;;19.60;51.90;;;;;;1556343;76;1604;-71
2023/01/06 06:48:57;;;;;;;;;;;19.70;52.10;;;;;;1556322;76;719;-71
2023/01/06 06:51:09;;;;;;;;;;;19.70;52.10;;;;;;1554469;76;1919;-70
2023/01/06 06:53:11;;;;;;;;;;;19.60;51.90;;;;;;1560107;75;1125;-70
2023/01/06 06:55:13;;;;;;;;;;;19.60;51.90;;;;;;1552147;76;777;-71
2023/01/06 06:57:15;;;;;;;;;;;19.60;51.90;;;;;;1553005;76;636;-71
2023/01/06 06:59:17;;;;;;;;;;;19.60;51.90;;;;;;1554656;76;683;-71
2023/01/06 07:01:19;;;;;;;;;;;19.60;51.90;;;;;;1555333;76;1531;-71
2023/01/06 07:03:21;;;;;;;;;;;19.60;51.90;;;;;;1551476;75;1032;-70
2023/01/06 07:05:24;;;;;;;;;;;19.70;52.10;;;;;;1554011;76;632;-70
2023/01/06 07:07:26;;;;;;;;;;;19.70;52.10;;;;;;1553599;75;701;-70
2023/01/06 07:09:28;;;;;;;;;;;19.60;51.90;;;;;;1555366;76;719;-70
2023/01/06 07:11:30;;;;;;;;;;;19.60;52.00;;;;;;1551337;76;1938;-71
2023/01/06 07:13:32;;;;;;;;;;;19.70;52.10;;;;;;1556277;76;605;-71
2023/01/06 07:15:33;;;;;;;;;;;19.60;51.90;;;;;;1555578;76;1481;-68
2023/01/06 07:17:35;;;;;;;;;;;19.60;51.90;;;;;;1554056;76;729;-70
2023/01/06 07:19:37;;;;;;;;;;;19.60;51.90;;;;;;1555551;76;715;-70
2023/01/06 07:21:39;;;;;;;;;;;19.70;52.10;;;;;;1557432;75;1169;-71
2023/01/06 07:23:41;;;;;;;;;;;19.60;51.90;;;;;;1555813;76;701;-71
2023/01/06 07:25:43;;;;;;;;;;;19.70;52.10;;;;;;1550028;76;716;-70
2023/01/06 07:27:45;;;;;;;;;;;19.70;52.10;;;;;;1552694;76;713;-71
2023/01/06 07:29:47;;;;;;;;;;;19.60;51.90;;;;;;1555432;76;1480;-70
2023/01/06 07:31:48;;;;;;;;;;;19.70;52.00;;;;;;1551932;76;1939;-70
2023/01/06 07:33:50;;;;;;;;;;;19.70;52.10;;;;;;1549111;76;797;-70
2023/01/06 07:35:53;;;;;;;;;;;19.70;52.10;;;;;;1539009;76;711;-72
2023/01/06 07:37:55;;;;;;;;;;;19.60;51.90;;;;;;1553116;76;693;-70
2023/01/06 07:39:56;;;;;;;;;;;19.70;52.10;;;;;;1553845;76;731;-70
2023/01/06 07:41:58;;;;;;;;;;;19.60;51.90;;;;;;1555592;75;1148;-69
2023/01/06 07:44:00;;;;;;;;;;;19.70;52.00;;;;;;1556936;76;1443;-71
2023/01/06 07:46:02;;;;;;;;;;;19.60;51.80;;;;;;1554342;76;718;-70
2023/01/06 07:48:04;;;;;;;;;;;19.70;52.00;;;;;;1551756;76;738;-70
2023/01/06 07:50:06;;;;;;;;;;;19.60;51.80;;;;;;1536869;75;739;-71
2023/01/06 07:52:08;;;;;;;;;;;19.60;51.80;;;;;;1554739;75;1943;-71
2023/01/06 07:54:10;;;;;;;;;;;19.70;52.00;;;;;;1550302;76;768;-71
2023/01/06 07:56:11;;;;;;;;;;;19.60;51.80;;;;;;1546482;76;1422;-70
2023/01/06 07:58:13;;;;;;;;;;;19.70;52.00;;;;;;1553579;76;692;-71
2023/01/06 08:00:15;;;;;;;;;;;19.60;51.80;;;;;;1553951;76;751;-71
2023/01/06 08:02:17;;;;;;;;;;;19.70;51.90;;;;;;1544961;75;1114;-71
2023/01/06 08:04:19;;;;;;;;;;;19.60;51.80;;;;;;1554384;75;663;-70
2023/01/06 08:06:21;;;;;;;;;;;19.70;52.00;;;;;;1560892;75;779;-69
2023/01/06 08:08:23;;;;;;;;;;;19.70;51.90;;;;;;1553969;76;758;-71
2023/01/06 08:10:25;;;;;;;;;;;19.60;51.80;;;;;;1555162;76;1477;-71
2023/01/06 08:12:26;;;;;;;;;;;19.70;51.80;;;;;;1554369;75;1936;-71
2023/01/06 08:14:28;;;;;;;;;;;19.70;51.80;;;;;;1550085;76;728;-71
2023/01/06 08:16:30;;;;;;;;;;;19.70;51.80;;;;;;1552966;76;678;-71
2023/01/06 08:18:32;;;;;;;;;;;19.70;51.80;;;;;;1553027;76;695;-71
2023/01/06 08:20:34;;;;;;;;;;;19.70;51.80;;;;;;1555189;75;665;-71
2023/01/06 08:22:36;;;;;;;;;;;19.70;51.80;;;;;;1545380;76;1174;-70
2023/01/06 08:24:38;;;;;;;;;;;19.70;51.80;;;;;;1546375;76;1425;-71
2023/01/06 08:26:39;;;;;;;;;;;19.80;51.70;;;;;;1555076;76;719;-71
2023/01/06 08:28:42;;;;;;;;;;;19.80;51.60;;;;;;1545372;76;722;-71
2023/01/06 08:30:44;;;;;;;;;;;19.80;51.70;;;;;;1542942;76;720;-70
2023/01/06 08:32:45;;;;;;;;;;;19.80;51.50;;;;;;1555899;75;1933;-71
2023/01/06 08:34:47;;;;;;;;;;;19.90;51.60;;;;;;1555058;76;775;-72
2023/01/06 08:36:51;;;;;;;;;;;19.90;51.50;;;;;;1554107;76;716;-70
2023/01/06 08:38:53;;;;;;;;;;;19.90;51.40;;;;;;1548684;76;1469;-68
2023/01/06 08:40:55;;;;;;;;;;;19.90;51.30;;;;;;1553675;76;692;-71
2023/01/06 08:42:57;;;;;;;;;;;19.90;51.30;;;;;;1554314;75;1149;-71
2023/01/06 08:44:59;;;;;;;;;;;19.90;51.30;;;;;;1552037;76;1051;-70
2023/01/06 08:47:01;;;;;;;;;;;19.90;51.10;;;;;;1549157;76;742;-71
2023/01/06 08:49:03;;;;;;;;;;;19.90;51.20;;;;;;1553844;76;728;-71
2023/01/06 08:51:05;;;;;;;;;;;19.90;51.20;;;;;;1556488;76;1928;-71
2023/01/06 08:53:08;;;;;;;;;;;19.90;51.20;;;;;;1555893;75;1467;-70
2023/01/06 08:55:09;;;;;;;;;;;19.90;51.20;;;;;;1555574;76;776;-69
2023/01/06 08:57:14;;;;;;;;;;;19.90;51.30;;;;;;1554599;76;727;-69
2023/01/06 08:59:15;;;;;;;;;;;19.90;51.20;;;;;;1554935;76;1125;-68
2023/01/06 09:01:17;;;;;;;;;;;19.90;51.30;;;;;;1554583;76;711;-71
2023/01/06 09:03:19;;;;;;;;;;;19.80;51.10;;;;;;1553591;75;1116;-71
2023/01/06 09:05:22;;;;;;;;;;;19.80;51.10;;;;;;1552884;76;977;-71
2023/01/06 09:07:24;;;;;;;;;;;19.80;51.10;;;;;;1553867;76;1454;-71
2023/01/06 09:09:25;;;;;;;;;;;19.80;51.10;;;;;;1553327;76;689;-71
2023/01/06 09:11:27;;;;;;;;;;;19.80;51.10;;;;;;1553053;76;1935;-71
2023/01/06 09:13:29;;;;;;;;;;;19.90;51.20;;;;;;1554532;75;1157;-71
2023/01/06 09:15:31;;;;;;;;;;;19.80;51.00;;;;;;1554748;76;797;-71
2023/01/06 09:17:33;;;;;;;;;;;19.90;51.10;;;;;;1553546;76;740;-71
2023/01/06 09:19:35;;;;;;;;;;;19.90;51.20;;;;;;1555735;76;715;-71
2023/01/06 09:21:37;;;;;;;;;;;19.80;51.10;;;;;;1545039;76;1415;-71
2023/01/06 09:23:39;;;;;;;;;;;19.80;51.10;;;;;;1554930;76;678;-69
2023/01/06 09:25:40;;;;;;;;;;;19.90;51.00;;;;;;1555338;76;724;-70
2023/01/06 09:27:42;;;;;;;;;;;19.90;51.00;;;;;;1546298;76;708;-70
2023/01/06 09:29:44;;;;;;;;;;;19.90;51.00;;;;;;1555110;76;704;-70
2023/01/06 09:31:46;;;;;;;;;;;20.00;51.00;;;;;;1545919;75;1943;-71
2023/01/06 09:33:48;;;;;;;;;;;20.00;50.80;;;;;;1554827;76;755;-71
2023/01/06 09:35:50;;;;;;;;;;;20.00;50.70;;;;;;1555305;76;1222;-71
2023/01/06 09:37:52;;;;;;;;;;;20.10;50.60;;;;;;1552881;76;716;-70
2023/01/06 09:39:54;;;;;;;;;;;20.20;50.40;;;;;;1541130;76;720;-71
2023/01/06 09:42:12;;;;;;;;;;;20.20;50.30;;;;;;1556137;75;1179;-70
2023/01/06 09:44:21;;;;;;;;;;;20.30;50.20;;;;;;1473878;80;1062;-70
2023/01/06 09:46:25;;;;;;;;;;;20.30;50.20;;;;;;1498178;76;968;-71
2023/01/06 09:48:34;;;;;;;;;;;20.40;50.10;;;;;;1561370;75;706;-70
2023/01/06 09:50:38;;;;;;;;;;;20.30;50.10;;;;;;1554405;76;1559;-69
2023/01/06 09:52:41;;;;;;;;;;;20.50;50.10;;;;;;1545904;75;1915;-70
2023/01/06 09:54:47;;;;;;;;;;;20.50;50.00;;;;;;1552999;76;1006;-70
2023/01/06 09:56:51;;;;;;;;;;;20.60;50.00;;;;;;1530699;76;1056;-70
2023/01/06 09:59:00;;;;;;;;;;;20.50;49.90;;;;;;1555941;76;1746;-71
2023/01/06 10:01:04;;;;;;;;;;;20.50;49.80;;;;;;1553472;76;1042;-71
2023/01/06 10:03:08;;;;;;;;;;;20.60;49.80;;;;;;1551084;75;1512;-71
2023/01/06 10:05:15;;;;;;;;;;;20.60;49.70;;;;;;1554701;76;679;-69
2023/01/06 10:07:19;;;;;;;;;;;20.70;49.80;;;;;;1538933;76;1074;-71
2023/01/06 10:09:31;;;;;;;;;;;20.60;49.60;;;;;;1549047;76;730;-71
2023/01/06 10:11:41;;;;;;;;;;;20.60;49.50;;;;;;1554908;75;1907;-69
2023/01/06 10:13:52;;;;;;;;;;;20.60;49.50;;;;;;1557698;76;1414;-71
2023/01/06 10:15:58;;;;;;;;;;;20.60;49.50;;;;;;1558948;75;1610;-68
2023/01/06 10:18:18;;;;;;;;;;;20.70;49.60;;;;;;1554845;76;1448;-68
2023/01/06 10:20:39;;;;;;;;;;;20.70;49.60;;;;;;1555743;76;714;-71
2023/01/06 10:22:42;;;;;;;;;;;20.70;49.60;;;;;;1555186;75;1230;-71
2023/01/06 10:24:55;;;;;;;;;;;20.70;49.40;;;;;;1556049;76;675;-71
2023/01/06 10:26:58;;;;;;;;;;;20.70;49.40;;;;;;1551199;76;810;-69
2023/01/06 10:29:04;;;;;;;;;;;20.70;49.30;;;;;;1551382;76;754;-71
2023/01/06 10:31:10;;;;;;;;;;;20.70;49.30;;;;;;1556156;75;1457;-71
2023/01/06 10:33:20;;;;;;;;;;;20.70;49.20;;;;;;1578823;71;2134;-70
2023/01/06 10:35:22;;;;;;;;;;;20.70;49.30;;;;;;1587668;73;763;-69
2023/01/06 10:37:25;;;;;;;;;;;20.70;49.30;;;;;;1594561;74;779;-68
2023/01/06 10:39:27;;;;;;;;;;;20.70;49.30;;;;;;1584994;75;1145;-71
2023/01/06 10:41:42;;;;;;;;;;;20.70;49.20;;;;;;1588993;74;708;-71
2023/01/06 10:43:44;;;;;;;;;;;20.70;49.20;;;;;;1583430;73;1175;-71
2023/01/06 10:45:46;;;;;;;;;;;20.70;49.30;;;;;;1587412;73;1337;-71
2023/01/06 10:47:48;;;;;;;;;;;20.70;49.30;;;;;;1594084;73;731;-71
2023/01/06 10:49:50;;;;;;;;;;;20.70;49.20;;;;;;1561913;74;740;-71
2023/01/06 10:51:53;;;;;;;;;;;20.70;49.30;;;;;;1593327;73;1933;-69
2023/01/06 10:53:57;;;;;;;;;;;20.60;49.10;;;;;;1593609;74;743;-71
2023/01/06 10:56:00;;;;;;;;;;;20.70;49.20;;;;;;1594295;74;840;-71
2023/01/06 10:58:14;;;;;;;;;;;20.60;49.10;;;;;;1594045;73;781;-71
2023/01/06 11:00:17;;;;;;;;;;;20.60;49.10;;;;;;1590084;73;1536;-72
2023/01/06 11:02:22;;;;;;;;;;;20.70;49.20;;;;;;1592918;73;1123;-71
2023/01/06 11:04:25;;;;;;;;;;;20.60;49.10;;;;;;1594555;73;713;-71
2023/01/06 11:06:28;;;;;;;;;;;20.60;49.00;;;;;;1593360;73;733;-73
2023/01/06 11:08:29;;;;;;;;;;;20.60;49.00;;;;;;1593672;73;843;-72
2023/01/06 11:10:33;;;;;;;;;;;20.60;48.90;;;;;;1593880;73;792;-72
2023/01/06 11:12:35;;;;;;;;;;;20.60;48.90;;;;;;1593893;73;1943;-71
2023/01/06 11:14:37;;;;;;;;;;;20.60;48.90;;;;;;1593454;73;1534;-71
2023/01/06 11:16:38;;;;;;;;;;;20.60;49.00;;;;;;1592910;73;739;-70
2023/01/06 11:18:40;;;;;;;;;;;20.60;49.00;;;;;;1592719;73;604;-70
2023/01/06 11:20:42;;;;;;;;;;;20.60;49.00;;;;;;1592538;73;793;-71
2023/01/06 11:22:44;;;;;;;;;;;20.50;49.00;;;;;;1594587;73;1124;-71
2023/01/06 11:24:50;;;;;;;;;;;20.50;49.10;;;;;;1592390;73;809;-71
2023/01/06 11:26:55;;;;;;;;;;;20.50;49.00;;;;;;1594878;73;872;-70
2023/01/06 11:28:57;;;;;;;;;;;20.50;49.20;;;;;;1584157;73;1574;-71
2023/01/06 11:31:01;;;;;;;;;;;20.40;49.20;;;;;;1561558;75;682;-71
2023/01/06 11:33:02;;;;;;;;;;;20.50;49.10;;;;;;1584001;73;1941;-71
2023/01/06 11:35:05;;;;;;;;;;;20.40;49.10;;;;;;1597014;73;681;-72
2023/01/06 11:37:07;;;;;;;;;;;20.40;49.20;;;;;;1595232;73;797;-71
2023/01/06 11:39:16;;;;;;;;;;;20.50;49.30;;;;;;1588836;73;673;-71
2023/01/06 11:41:20;;;;;;;;;;;20.40;49.20;;;;;;1583210;73;1510;-71
2023/01/06 11:43:26;;;;;;;;;;;20.40;49.20;;;;;;1581793;73;1770;-71
2023/01/06 11:45:36;;;;;;;;;;;20.50;49.20;;;;;;1594781;73;1918;-73
2023/01/06 11:47:38;;;;;;;;;;;20.50;49.30;;;;;;1592258;74;760;-70
2023/01/06 11:49:50;;;;;;;;;;;20.40;49.20;;;;;;1593751;73;757;-72
2023/01/06 11:51:54;;;;;;;;;;;20.30;49.20;;;;;;1594468;73;876;-70
2023/01/06 11:53:56;;;;;;;;;;;20.40;49.20;;;;;;1594006;73;1937;-71
2023/01/06 11:56:01;;;;;;;;;;;20.40;49.30;;;;;;1592643;73;1338;-72
2023/01/06 11:58:04;;;;;;;;;;;20.30;49.40;;;;;;1594503;74;807;-72
2023/01/06 12:00:23;;;;;;;;;;;20.40;49.40;;;;;;1593676;73;743;-71
2023/01/06 12:02:29;;;;;;;;;;;20.40;49.40;;;;;;1590065;73;1132;-71
2023/01/06 12:04:33;;;;;;;;;;;20.40;49.40;;;;;;1594924;73;1807;-71
2023/01/06 12:06:36;;;;;;;;;;;20.30;49.50;;;;;;1592076;73;773;-72
2023/01/06 12:08:40;;;;;;;;;;;20.40;49.60;;;;;;1589346;73;917;-71
2023/01/06 12:10:41;;;;;;;;;;;20.30;49.60;;;;;;1588741;73;1922;-71
2023/01/06 12:12:43;;;;;;;;;;;20.30;49.60;;;;;;1592748;73;1944;-72
2023/01/06 12:14:45;;;;;;;;;;;20.30;49.70;;;;;;1593568;73;891;-69
2023/01/06 12:16:55;;;;;;;;;;;20.30;49.70;;;;;;1591235;73;778;-71
2023/01/06 12:18:57;;;;;;;;;;;20.20;49.60;;;;;;1594155;73;772;-70